Diecimila del Campanie - Km 10,000

Ponte SAn Giovanni (Pg) - 21.9.2014

 

foto (By G. Rustici) 

 

Risultati a cura di DreamRunners Perugia

   

Ordine d'arrivo maschile - km 10
Pos Atleta Sex Squadra Anno Cate Tempo Media P_cat
1 KOSGEI PHILEMON M ATL. RECANATI 1993 MM30(A) 00:31:07 03:07 0
2 KABBOURI ABDELEKRIM M C.U.S.  CAMERINO 1982 MM30(A) 00:31:20 03:08 0
3 KIPROP LINUS M FARNESE VINI PESCARA 1989 MM30(A) 00:33:07 03:19 0
4 EL KHALIL YASSIN M CDP-T&RB GROUP-AREA SISTEMA 1992 MM30(A) 00:33:13 03:19 0
5 EL MAKHROUT CHERKAOUI M BRAVETTA RUNNERS 1980 MM30(A) 00:33:47 03:23 0
6 PETRINI DANIELE M ATL. AVIS PERUGIA 1984 MM30(A) 00:34:09 03:25 0
7 PROIETTI MARCO M ATL. WINNER FOLIGNO 1996 MM30(A) 00:34:55 03:30 0
8 GRILLO GIANFILIPPO M ATHLETIC TERNI 1987 MM30(A) 00:35:28 03:33 0
9 HARRISON THOMAS M ATL. AVIS PERUGIA 1992 MM30(A) 00:35:37 03:34 0
10 PONTANI LUIGI M ATL. AVIS PERUGIA 1964 MM50(E) 00:35:41 03:34 0
11 LENTICCHI EROS M DREAM RUNNERS PG 1977 MM35(B) 00:35:58 03:36 1
12 AMETRANO ALESSIO M POD. CORCIANO 1983 MM30(A) 00:36:04 03:36 1
13 MERLUZZO MATTEO M G.S. FILIPPIDE C. D. LAGO 1987 MM30(A) 00:36:06 03:37 2
14 RECANATESI CRISTIANO M DINAMIS FALCONARA 1973 MM40(C) 00:36:11 03:37 1
15 PUGNALI ALESSANDRO M ATL. WINNER FOLIGNO 1983 MM30(A) 00:36:15 03:38 3
16 COSTANZI ENRICO M RUNNERS SANGEMINI TR 1978 MM35(B) 00:36:35 03:40 2
17 MARIANI MIRKO M ATL. WINNER FOLIGNO 1977 MM35(B) 00:36:46 03:41 3
18 TRIPPELLA GIOVANNI M ATL. UMBERTIDE 1974 MM40(C) 00:36:49 03:41 2
19 NUCCIARELLI PIERLUIGI M ATL. IL COLLE PERUGIA 1980 MM30(A) 00:36:55 03:42 4
20 GRAZIANI FABIO M POD. AVIS DERUTA 1979 MM35(B) 00:37:00 03:42 4
21 RACHID TYOULI M ATL. SPOLETO 2010 1979 MM35(B) 00:37:09 03:43 5
22 DIONISI MARCO M GUBBIO RUNNERS 1992 MM30(A) 00:37:18 03:44 5
23 MORANI EVIAN M ASSISI RUNNERS 1972 MM40(C) 00:37:23 03:44 3
24 GRANIERI FIORINI FABRIZIO M UISPORT AVIS TODI 1969 MM45(D) 00:37:24 03:44 1
25 MINCIOTTI MASSIMILIANO M ATL. CAPANNE PG 1972 MM40(C) 00:37:26 03:45 4
26 BUSTO MARCO M GUBBIO RUNNERS 1964 MM50(E) 00:37:29 03:45 1
27 TORTOIOLI MARCO M ATL. AVIS PERUGIA 1972 MM40(C) 00:37:32 03:45 5
28 SCASSELLATI VALERIO M ATL. TAINO 1979 MM35(B) 00:37:33 03:45 6
29 CUITI STEFANO M CDP-T&RB GROUP-AREA SISTEMA 1973 MM40(C) 00:37:36 03:46 6
30 AQUILINI GIAN LUIGI M ATL. WINNER FOLIGNO 1973 MM40(C) 00:37:41 03:46 7
31 CAROSI STEFANO M O.S.O. OLD STAR OSTIA 1973 MM40(C) 00:37:41 03:46 8
32 MEZZASOMA DOMENICO M ATL. LIBERTAS ARCS 1979 MM35(B) 00:37:44 03:46 7
33 CARINI ANGELO M G.S. FILIPPIDE C. D. LAGO 1979 MM35(B) 00:37:45 03:47 8
34 PANFILI FLAVIO M ATL. AVIS PERUGIA 1971 MM40(C) 00:38:01 03:48 9
35 PIRILLI ANDREA M DREAM RUNNERS PG 1969 MM45(D) 00:38:04 03:48 2
36 DONADIO STEFANO M DREAM RUNNERS PG 1975 MM35(B) 00:38:13 03:49 9
37 DE ANGELIS CARLO M ATL. URBANIA 1976 MM35(B) 00:38:15 03:50 10
38 BRACHELENTE LORENZO M OLYMPIC RUNNERS LAMA 1985 MM30(A) 00:38:16 03:50 6
39 CHIAPPINI DANIELE M POD. CARSULAE TR 1978 MM35(B) 00:38:21 03:50 11
40 DALGAS ALESSANDRO M UISP CHIANCIANO 1969 MM45(D) 00:38:29 03:51 3
41 SFONDALMONDO MASSIMILIANO M ATL. AVIS PERUGIA 1971 MM40(C) 00:38:30 03:51 10
42 FRATINI DANIELE M ATL. TAINO 1979 MM35(B) 00:38:31 03:51 12
43 MARINI OLIVIERO M RUNNERS SANGEMINI TR 1964 MM50(E) 00:38:34 03:51 2
44 PORTOGHESE GIUSEPPE M POD. AVIS DERUTA 1975 MM35(B) 00:38:37 03:52 13
45 ZANINO GIOVANNI ALESSIO M A.S.P.A. BASTIA U. PG 1966 MM45(D) 00:38:39 03:52 4
46 APOSTOLI PROIETTI ANDREA M ATL. SPOLETO 2010 1983 MM30(A) 00:38:45 03:53 7
47 TINELLI FABRIZIO M ATL. SPOLETO 2010 1968 MM45(D) 00:38:45 03:53 5
48 MANETTA SERGIO M CDP-T&RB GROUP-AREA SISTEMA 1957 MM55(F) 00:38:53 03:53 1
49 RICCIARELLI ROCCO M POD. AVIS DERUTA 1983 MM30(A) 00:38:54 03:53 8
50 CAVALLUCCI MARCO M RUNNERS SANGEMINI TR 1967 MM45(D) 00:39:01 03:54 6
51 POLTICCHIA ROBERTO M CDP-T&RB GROUP-AREA SISTEMA 1964 MM50(E) 00:39:06 03:55 3
52 FINOCCHI SAURO M ATL. AVIS PERUGIA 1961 MM50(E) 00:39:15 03:56 4
53 CAPORALI SANDRO M ATL. AVIS PERUGIA 1962 MM50(E) 00:39:19 03:56 5
54 BIAGIONI MASSIMO M ATL. TAINO 1974 MM40(C) 00:39:22 03:56 11
55 SPACCI FABRIZIO M CDP-T&RB GROUP-AREA SISTEMA 1966 MM45(D) 00:39:22 03:56 7
56 MATTIOLI CLAUDIO M ATL. AVIS PERUGIA 1959 MM55(F) 00:39:37 03:58 2
57 FAZI MAURO M ATL. TAINO 1971 MM40(C) 00:39:38 03:58 12
58 MINISTRO FRANCESCO M AMATORI POD. TERNI 1972 MM40(C) 00:39:39 03:58 13
59 TACCUCCI MAURIZIO M ATL. IL COLLE PERUGIA 1970 MM40(C) 00:39:39 03:58 14
60 BRAGETTI GIAMPIERO M ATL. IL COLLE PERUGIA 1970 MM40(C) 00:39:43 03:58 15
61 TAZZA GIORGIO M AMATORI POD. TERNI 1961 MM50(E) 00:39:47 03:59 6
62 SAVERI UGO M ATL. AVIS PERUGIA 1968 MM45(D) 00:39:48 03:59 8
63 FAZI FABIO M ATL. TAINO 1976 MM35(B) 00:39:49 03:59 14
64 PIERINI GIUSEPPE M MARATHON CLUB C. DI CASTELLO 1961 MM50(E) 00:39:54 03:59 7
65 FANELLI RICCARDO M ATL. AVIS PERUGIA 1953 MM60(G) 00:39:57 04:00 1
66 MERCANTINI FRANCO M POD. CARSULAE TR 1965 MM45(D) 00:39:58 04:00 9
67 ANGELUCCI GABRIELE M ATL. WINNER FOLIGNO 1986 MM30(A) 00:40:05 04:01 9
68 BECCHETTI ENRICO M RUNNERS MONTE ACUTO 1970 MM40(C) 00:40:05 04:01 16
69 BARTOLLINI SANDRO M RUNNERS SANGEMINI TR 1957 MM55(F) 00:40:08 04:01 3
70 PALAZZETTI GIANLUCA M ATL. CAPANNE PG 1966 MM45(D) 00:40:10 04:01 10
71 BENEDETTI STEFANO M ATL. IL COLLE PERUGIA 1969 MM45(D) 00:40:10 04:01 11
72 GUASTELLA FILIPPO M CDP-T&RB GROUP-AREA SISTEMA 1983 MM30(A) 00:40:18 04:02 10
73 BATTISTELLI FABIO M ASSISI RUNNERS 1979 MM35(B) 00:40:25 04:03 15
74 VERDUCCI LEONARDO M ASSISI RUNNERS 1975 MM35(B) 00:40:26 04:03 16
75 ZUCCHINI ANDREA M MARATHON CLUB C. DI CASTELLO 1971 MM40(C) 00:40:26 04:03 17
76 FERRANTE DANIELE M ATL. SPOLETO 2010 1991 MM30(A) 00:40:29 04:03 11
77 RICCI CARLO M CDP-T&RB GROUP-AREA SISTEMA 1975 MM35(B) 00:40:31 04:03 17
78 ANGELUZZI MASSIMO M RUNNERS SANGEMINI TR 1963 MM50(E) 00:40:32 04:03 8
79 COLETTI ALESSIO M POD. AVIS DERUTA 1976 MM35(B) 00:40:33 04:03 18
80 LUCCIOLI FILIPPO M CDP-T&RB GROUP-AREA SISTEMA 1975 MM35(B) 00:40:36 04:04 19
81 BIONDINI MARCO M UISPORT AVIS TODI 1990 MM30(A) 00:40:37 04:04 12
82 CANCELLONI MARCELLO M ATL. AVIS PERUGIA 1972 MM40(C) 00:40:39 04:04 18
83 CHERUBINI FEDERICO M CDP-T&RB GROUP-AREA SISTEMA 1977 MM35(B) 00:40:40 04:04 20
84 STACCINI CLAUDIO M ATL. IL COLLE PERUGIA 1964 MM50(E) 00:40:43 04:04 9
85 AMBROGI ENRICO M UISPORT AVIS TODI 1965 MM45(D) 00:40:45 04:05 12
86 TOMASSOLI MASSIMILIANO M CDP-T&RB GROUP-AREA SISTEMA 1968 MM45(D) 00:40:48 04:05 13
87 GAILLARDI ALESSIO M A.S.P.A. BASTIA U. PG 1973 MM40(C) 00:40:51 04:05 19
88 ROSSI RICCARDO M DREAM RUNNERS PG 1966 MM45(D) 00:40:54 04:05 14
89 NATALIZI PIERLUIGI M ATL. SPOLETO 2010 1966 MM45(D) 00:40:56 04:06 15
90 GIANNONI CLAUDIO M CDP-T&RB GROUP-AREA SISTEMA 1961 MM50(E) 00:41:03 04:06 10
91 PETRUZZI PIETRO M OLYMPIC RUNNERS LAMA 1972 MM40(C) 00:41:06 04:07 20
92 DURANTI ROBERTO M ATL. IL COLLE PERUGIA 1968 MM45(D) 00:41:12 04:07 16
93 CASALINI SERGIO M ATL. WINNER FOLIGNO 1984 MM30(A) 00:41:14 04:07 13
94 PACETTI SILVIO M ATL. IL COLLE PERUGIA 1969 MM45(D) 00:41:22 04:08 17
95 LINCE MIRNO M CDP-T&RB GROUP-AREA SISTEMA 1972 MM40(C) 00:41:22 04:08 21
96 ZOCCOLINI MICHELE M ATL. CAPANNE PG 1974 MM40(C) 00:41:23 04:08 22
97 TABARRINI FRANCESCO M ATL. AVIS PERUGIA 1976 MM35(B) 00:41:25 04:09 21
98 BRANDI SECONDO M POD. AVIS FABRIANO AN 1961 MM50(E) 00:41:32 04:09 11
99 GAGLIESI GIANNI M ATL. IL COLLE PERUGIA 1964 MM50(E) 00:41:33 04:09 12
100 SERVO MASSIMILIANO M CDP-T&RB GROUP-AREA SISTEMA 1967 MM45(D) 00:41:36 04:10 18
101 PALLUCCO GIORGIO M ATL. SPOLETO 2010 1972 MM40(C) 00:41:37 04:10 23
102 GENOVESE GUIDO M RUNNERS MONTE ACUTO 1966 MM45(D) 00:41:39 04:10 19
103 PIAMPIANO MORENO M CDP-T&RB GROUP-AREA SISTEMA 1969 MM45(D) 00:41:41 04:10 20
104 BERTINI MATTEO M UISPORT AVIS TODI 1975 MM35(B) 00:41:41 04:10 22
105 AQUILINO LORENZO M ATL. CAPANNE PG 1972 MM40(C) 00:41:44 04:10 24
106 SALEPPICO MORENO M UISPORT AVIS TODI 1969 MM45(D) 00:41:45 04:11 21
107 CESARINI ALBERTO M ATL. IL COLLE PERUGIA 1969 MM45(D) 00:41:45 04:11 22
108 D'AURIZIO FABRIZIO M ATL. WINNER FOLIGNO 1968 MM45(D) 00:41:46 04:11 23
109 CINTI GIANNI M POD. AVIS DERUTA 1968 MM45(D) 00:41:48 04:11 24
110 MARINANGELI ADRIANO M ATL. TREVI 1957 MM55(F) 00:41:51 04:11 4
111 BELLONI LUCA M ATL. WINNER FOLIGNO 1970 MM40(C) 00:41:52 04:11 25
112 DI GIULI ALESSANDRO M RUNNERS SANGEMINI TR 1980 MM30(A) 00:41:54 04:11 14
113 CASTELLANI GIOVANNI M ATL. IL COLLE PERUGIA 1964 MM50(E) 00:41:58 04:12 13
114 PROIETTI BOCCHINI PIERLUCA M ATL. UMBERTIDE 1972 MM40(C) 00:41:59 04:12 26
115 PECCI MARZIO M ATL. TAINO 1974 MM40(C) 00:42:00 04:12 27
116 CALAMITA PAOLO M G.S. AVIS NARNI 1972 MM40(C) 00:42:01 04:12 28
117 GUERCINI MASSIMO M POD. LINO SPAGNOLI PG 1972 MM40(C) 00:42:01 04:12 29
118 GRADASSI MAURO M ATL. IL COLLE PERUGIA 1959 MM55(F) 00:42:01 04:12 5
119 COVARELLI MAURO M ATL. AVIS PERUGIA 1959 MM55(F) 00:42:01 04:12 6
120 DENTINI MARCO M UISPORT AVIS TODI 1967 MM45(D) 00:42:05 04:13 25
121 MAGGI MASSIMO M ATL. TREVI 1972 MM40(C) 00:42:08 04:13 30
122 ALLEGRUCCI FABIO M GUBBIO RUNNERS 1974 MM40(C) 00:42:12 04:13 31
123 LAURIOLA LIBERO M ATL. AVIS PERUGIA 1961 MM50(E) 00:42:14 04:13 14
124 TERCHI NOCENTINI FABRIZIO M POD. LINO SPAGNOLI PG 1966 MM45(D) 00:42:17 04:14 26
125 COPPINI VALTER M CDP-T&RB GROUP-AREA SISTEMA 1965 MM45(D) 00:42:20 04:14 27
126 ALEMANNO FILIPPO M UISPORT AVIS TODI 1993 MM30(A) 00:42:21 04:14 15
127 PACCHIA ALESSANDRO M ATL. WINNER FOLIGNO 1969 MM45(D) 00:42:23 04:14 28
128 REALI GABRIELE M ATL. AVIS PERUGIA 1964 MM50(E) 00:42:27 04:15 15
129 ROSSINI GIANFRANCO M CDP-T&RB GROUP-AREA SISTEMA 1962 MM50(E) 00:42:32 04:15 16
130 MARIUCCI ANDREA M GUBBIO RUNNERS 1974 MM40(C) 00:42:33 04:15 32
131 GIURATI MIRCO M POD. AVIS DERUTA 1972 MM40(C) 00:42:34 04:15 33
132 CASTELLANI SIMONE M ATL. WINNER FOLIGNO 1972 MM40(C) 00:42:36 04:16 34
133 TEDONE PAOLO M ATL. AVIS PERUGIA 1988 MM30(A) 00:42:40 04:16 16
134 GABRIONI LUIGI M ATL. IL COLLE PERUGIA 1976 MM35(B) 00:42:41 04:16 23
135 PINACOLI CARLO ALBERTO M ATL. TAINO 1970 MM40(C) 00:42:42 04:16 35
136 BURATTA RICCARDO M ATL. CAPANNE PG 1976 MM35(B) 00:42:44 04:16 24
137 GALIOTTO DANIELE M ATL. TAINO 1981 MM30(A) 00:42:47 04:17 17
138 PELLICCIA SERGIO M CDP-T&RB GROUP-AREA SISTEMA 1966 MM45(D) 00:42:48 04:17 29
139 PISANI EMILIO M ATL. CAPANNE PG 1971 MM40(C) 00:42:48 04:17 36
140 GIRELLI VALERIO M RUNNERS MONTE ACUTO 1973 MM40(C) 00:42:50 04:17 37
141 ARCELLI FABRIZIO M ATL. AVIS PERUGIA 1964 MM50(E) 00:42:52 04:17 17
142 BINACCI MASSIMO M ATL. AVIS PERUGIA 1965 MM45(D) 00:42:53 04:17 30
143 BRUNETTI MARCO M CDP-T&RB GROUP-AREA SISTEMA 1968 MM45(D) 00:42:54 04:17 31
144 GRIMALDI MASSIMILIANO M POD. CARSULAE TR 1968 MM45(D) 00:42:58 04:18 32
145 ROSATI DIEGO M ATL. CAPANNE PG 1972 MM40(C) 00:42:59 04:18 38
146 CORICELLO ANTONIO M POD. CORCIANO 1973 MM40(C) 00:43:01 04:18 39
147 GOBBINI SMONE M ATL. AVIS PERUGIA 1972 MM40(C) 00:43:05 04:19 40
148 GIGLIONI GIOVANNI M UISPORT AVIS TODI 1974 MM40(C) 00:43:09 04:19 41
149 PIGINI ALVARO M UISPORT AVIS TODI 1959 MM55(F) 00:43:09 04:19 7
150 RICCI VANNI M UISPORT AVIS TODI 1964 MM50(E) 00:43:11 04:19 18
151 BARONI TIZIANO M ATL. CSAIN PERUGIA 1958 MM55(F) 00:43:16 04:20 8
152 FICOLA ROBERTO M ATL. AVIS PERUGIA 1977 MM35(B) 00:43:18 04:20 25
153 LOLLINI MANUEL M ATL. IL COLLE PERUGIA 1971 MM40(C) 00:43:19 04:20 42
154 MARCANTONINI ROBERTO M ATL. CAPANNE PG 1964 MM50(E) 00:43:26 04:21 19
155 ROSSI CARLO M ATL. WINNER FOLIGNO 1980 MM30(A) 00:43:26 04:21 18
156 RIBIGINI DOMENICO M POD. AVIS DERUTA 1947 MM65(H) 00:43:27 04:21 1
157 MAZZONI SILVANO M ATL. SPOLETO 2010 1949 MM65(H) 00:43:29 04:21 2
158 MAZZOCCHIO GIAN LUCA M ATL. WINNER FOLIGNO 1968 MM45(D) 00:43:30 04:21 33
159 RONDINI FABRIZIO M ATL. UMBERTIDE 1964 MM50(E) 00:43:36 04:22 20
160 PANCIAROLA FABIO M CDP-T&RB GROUP-AREA SISTEMA 1969 MM45(D) 00:43:38 04:22 34
161 FORTUNATI MASSIMO M UISPORT AVIS TODI 1964 MM50(E) 00:43:42 04:22 21
162 PENGUE VINCENZO M PODISTI ALTO SANNIO 1980 MM30(A) 00:43:43 04:22 19
163 LACCHI MASSIMILIANO M ATL. TAINO 1976 MM35(B) 00:43:45 04:23 26
164 CAPORALETTI FRANCESCO M ATL. IL COLLE PERUGIA 1985 MM30(A) 00:43:46 04:23 20
165 BARBETTI ALESSANDRO M ATL. SINALUNGA 1954 MM60(G) 00:43:47 04:23 2
166 ZAMPETTI ADELMO M CDP-T&RB GROUP-AREA SISTEMA 1961 MM50(E) 00:43:47 04:23 22
167 STINCHETTI MASSIMO M A.P. PONTE FELCINO PG 1966 MM45(D) 00:43:48 04:23 35
168 LUPI ANDREA M ATL. TAINO 1962 MM50(E) 00:43:49 04:23 23
169 CALIGIANA BENITO M CDP-T&RB GROUP-AREA SISTEMA 1959 MM55(F) 00:43:51 04:23 9
170 TOMBA EMANUELE M UISPORT AVIS TODI 1967 MM45(D) 00:43:55 04:24 36
171 PROCACCI NADIO M MARATHON CLUB C. DI CASTELLO 1970 MM40(C) 00:44:00 04:24 43
172 CAPODIMONTI FAUSTO M ATL. WINNER FOLIGNO 1967 MM45(D) 00:44:02 04:24 37
173 MEDICI PAOLO M ATL. UMBERTIDE 1981 MM30(A) 00:44:02 04:24 21
174 TESTA ORIANO M CDP-T&RB GROUP-AREA SISTEMA 1958 MM55(F) 00:44:03 04:24 10
175 GRILLI FABRIZIO M ATL. UMBERTIDE 1964 MM50(E) 00:44:03 04:24 24
176 TOPPETTI DAVID M UISPORT AVIS TODI 1967 MM45(D) 00:44:06 04:25 38
177 MARINI ALESSIO M POD. CORCIANO 1990 MM30(A) 00:44:10 04:25 22
178 MARCANTONINI PAOLO M ATL. CAPANNE PG 1969 MM45(D) 00:44:11 04:25 39
179 BUCCHI AMEDEO M POD. AVIS FABRIANO AN 1958 MM55(F) 00:44:13 04:25 11
180 PIERINI ROBERTO M G.S. FILIPPIDE C. D. LAGO 1987 MM30(A) 00:44:14 04:25 23
181 MIELE DAVIDE M ATL. CAPANNE PG 1979 MM35(B) 00:44:14 04:25 27
182 BOSCO SABINO M ASSISI RUNNERS 1966 MM45(D) 00:44:17 04:26 40
183 ERCOLANETTI LUCA M ATL. IL COLLE PERUGIA 1994 MM30(A) 00:44:18 04:26 24
184 GAROFOLI PAOLO M ATL. TAINO 1961 MM50(E) 00:44:20 04:26 25
185 PEDINI DAMIANO M ATL. IL COLLE PERUGIA 1968 MM45(D) 00:44:20 04:26 41
186 STROPPA EDIO M ATL. WINNER FOLIGNO 1961 MM50(E) 00:44:25 04:27 26
187 FALASCHI DANIELE M CDP-T&RB GROUP-AREA SISTEMA 1971 MM40(C) 00:44:28 04:27 44
188 PAOLONI PIERO M ATL. CAPANNE PG 1964 MM50(E) 00:44:38 04:28 27
189 GUERCINI BRUNO M ATL. IL COLLE PERUGIA 1949 MM65(H) 00:44:39 04:28 3
190 MARINELLI CRISTIANO M POD. AVIS DERUTA 1980 MM30(A) 00:44:42 04:28 25
191 SEVERINO GIOVANNI M ASSISI RUNNERS 1975 MM35(B) 00:44:44 04:28 28
192 PAZZAGLIA SERGIO M ATL. WINNER FOLIGNO 1963 MM50(E) 00:44:49 04:29 28
193 PAGIOTTI SIMONE M POD. AVIS DERUTA 1978 MM35(B) 00:44:53 04:29 29
194 LAMPIS GIOVANNI M RUNNERS SANGEMINI TR 1961 MM50(E) 00:44:54 04:29 29
195 BRUGNONI LUCIANO M GUBBIO RUNNERS 1974 MM40(C) 00:44:56 04:30 45
196 CANDI SILVANO M ASSISI RUNNERS 1971 MM40(C) 00:44:57 04:30 46
197 BELLAROSA GIOVANNI M ATL. UMBERTIDE 1964 MM50(E) 00:44:58 04:30 30
198 CUCCHIARINI PIERLUIGI M OLYMPIC RUNNERS LAMA 1958 MM55(F) 00:44:59 04:30 12
199 ZUDDAS ANGELO M ATL. SPOLETO 2010 1958 MM55(F) 00:45:03 04:30 13
200 PIETROBELLI DANIELE M CDP-T&RB GROUP-AREA SISTEMA 1973 MM40(C) 00:45:17 04:32 47
201 RANCHELLA FABIO M CDP-T&RB GROUP-AREA SISTEMA 1967 MM45(D) 00:45:18 04:32 42
202 DE FEO PIERPAOLO M VOLUMNIA SERICAP PG 1955 MM55(F) 00:45:18 04:32 14
203 CALDERINI CRISTIANO M POD. AVIS DERUTA 1974 MM40(C) 00:45:20 04:32 48
204 GOFFREDI REMO M DREAM RUNNERS PG 1957 MM55(F) 00:45:22 04:32 15
205 FIORI LEONARDO M ATL. CAPANNE PG 1962 MM50(E) 00:45:22 04:32 31
206 DUCHI ALESSANDRO M VIS CORTONA TRIATHLON 1973 MM40(C) 00:45:24 04:32 49
207 VINCENTI DANIELE M ATL. WINNER FOLIGNO 1974 MM40(C) 00:45:25 04:33 50
208 MONOTTI LUCA M ATL. IL COLLE PERUGIA 1971 MM40(C) 00:45:29 04:33 51
209 PANICALE STEFANO M ATL. AVIS PERUGIA 1971 MM40(C) 00:45:34 04:33 52
210 BRACHELENTE FRANCESCO M RUNNERS MONTE ACUTO 1987 MM30(A) 00:45:35 04:34 26
211 ESPOSITO PAOLO M AMATORI VESUVIO 1972 MM40(C) 00:45:38 04:34 53
212 MORETTI ALESSIO M APERDIFIATO 1959 MM55(F) 00:45:41 04:34 16
213 BURRINI GUIDO M POD. LINO SPAGNOLI PG 1966 MM45(D) 00:45:42 04:34 43
214 MICANTI CESARIO M ATL. TREVI 1963 MM50(E) 00:45:45 04:35 32
215 LASAGNA FRANCESCO M POD. CORCIANO 1972 MM40(C) 00:45:45 04:35 54
216 GABARRINI ANGELO M ATL. IL COLLE PERUGIA 1961 MM50(E) 00:45:46 04:35 33
217 MOGINI FABIO M ATL. AVIS PERUGIA 1968 MM45(D) 00:45:46 04:35 44
218 BIONDINI CARLO M UISPORT AVIS TODI 1961 MM50(E) 00:45:48 04:35 34
219 NOTARI RENZO M ATL. TAINO 1973 MM40(C) 00:45:50 04:35 55
220 CASCIARI SIMONE M CDP-T&RB GROUP-AREA SISTEMA 1971 MM40(C) 00:45:51 04:35 56
221 BOSSI FRANCO M ATL. SINALUNGA 1947 MM65(H) 00:45:51 04:35 4
222 BRIZI FABRIZIO M ATL. IL COLLE PERUGIA 1959 MM55(F) 00:45:52 04:35 17
223 ROSI GIANLUCA M ATL. WINNER FOLIGNO 1971 MM40(C) 00:45:54 04:35 57
224 BIFANI TOMMASO M CDP-T&RB GROUP-AREA SISTEMA 1983 MM30(A) 00:45:55 04:36 27
225 CASTELLI FRANCESCO M UISPORT AVIS TODI 1994 MM30(A) 00:45:58 04:36 28
226 BAGLIVO BRUNO M ATL. AVIS PERUGIA 1960 MM50(E) 00:45:59 04:36 35
227 PORFIRI MAURO M CDP-T&RB GROUP-AREA SISTEMA 1968 MM45(D) 00:46:02 04:36 45
228 VENTURA GIANLUCA M RUNNERS SANGEMINI TR 1991 MM30(A) 00:46:04 04:36 29
229 MARIANGELONI MARCO M CDP-T&RB GROUP-AREA SISTEMA 1974 MM40(C) 00:46:05 04:37 58
230 ANGELICI MICHELE M FORTI RUNNERS TERNI 1972 MM40(C) 00:46:11 04:37 59
231 PIZZOFERRATO MARIO M CDP-T&RB GROUP-AREA SISTEMA 1957 MM55(F) 00:46:15 04:38 18
232 BRUTTI LUCIANO M CDP-T&RB GROUP-AREA SISTEMA 1954 MM60(G) 00:46:17 04:38 3
233 BOCCI VAINER M A.P. PONTE FELCINO PG 1973 MM40(C) 00:46:20 04:38 60
234 NATALICCHI CESARE M CDP-T&RB GROUP-AREA SISTEMA 1956 MM55(F) 00:46:22 04:38 19
235 BARNESCHI IVO M POD. IL CAMPINO AR 1953 MM60(G) 00:46:32 04:39 4
236 PEDUCCI MAURIZIO M CDP-T&RB GROUP-AREA SISTEMA 1950 MM60(G) 00:46:35 04:40 5
237 COLMARETTI EMILIANO M FORTI RUNNERS TERNI 1976 MM35(B) 00:46:44 04:40 30
238 BRESCIANI CLAUDIO M ATL. CAPANNE PG 1958 MM55(F) 00:46:45 04:41 20
239 DEL TEGLIA GIULIANO M ATL. AVIS SANSEPOLCRO 1949 MM65(H) 00:46:50 04:41 5
240 BORDONI PAOLO M DREAM RUNNERS PG 1963 MM50(E) 00:47:02 04:42 36
241 DELLA VEDOVA DANIELE M ATL. WINNER FOLIGNO 1981 MM30(A) 00:47:02 04:42 30
242 ROMITI CLAUDIO M ATL. WINNER FOLIGNO 1958 MM55(F) 00:47:04 04:42 21
243 BARTOLETTI ANDREA M DINAMIS FALCONARA 1978 MM35(B) 00:47:08 04:43 31
244 CORICA ALFREDO M ATL. WINNER FOLIGNO 1951 MM60(G) 00:47:12 04:43 6
245 BARBADORI MAURO M POD. AVIS DERUTA 1969 MM45(D) 00:47:14 04:43 46
246 GUASTAVEGLIE VLADIMIRO M POD. AVIS DERUTA 1967 MM45(D) 00:47:24 04:44 47
247 MARTINI ROBERTO M POD. AVIS DERUTA 1967 MM45(D) 00:47:25 04:45 48
248 CARDAIOLI DANILO M ATL. IL COLLE PERUGIA 1963 MM50(E) 00:47:26 04:45 37
249 ARCALENI MICHELE M ATL. AVIS PERUGIA 1970 MM40(C) 00:47:28 04:45 61
250 GAZZE' GIUSEPPE NICOLA M A.P. PONTE FELCINO PG 1973 MM40(C) 00:47:35 04:46 62
251 UMIDINI FRANCESCO M ATL. IL COLLE PERUGIA 1977 MM35(B) 00:47:37 04:46 32
252 RADICCHI FRANCESCO M CDP-T&RB GROUP-AREA SISTEMA 1972 MM40(C) 00:47:40 04:46 63
253 BIANCHI MASSIMO M ASSISI RUNNERS 1966 MM45(D) 00:47:44 04:46 49
254 MEROLA GUERINO M ASSISI RUNNERS 1957 MM55(F) 00:47:44 04:46 22
255 MENCONI ANTONELLO M CDP-T&RB GROUP-AREA SISTEMA 1967 MM45(D) 00:47:45 04:47 50
256 TOGNOLONI ITALO M ATL. AVIS PERUGIA 1945 MM65(H) 00:47:47 04:47 6
257 FORTUNATI LUCA M PODISTICA CLT 1969 MM45(D) 00:47:48 04:47 51
258 RONCI ANDERSON M ASSISI RUNNERS 1982 MM30(A) 00:47:49 04:47 31
259 MARTIRIGGIANO GIUSEPPE M CDP-T&RB GROUP-AREA SISTEMA 1968 MM45(D) 00:47:51 04:47 23
260 PENCELLI STEFANO M ATLETA LIBERO 1979 MM35(B) 00:47:55 04:48 33
261 PICCOLO COSIMO M ATL. WINNER FOLIGNO 1943 MM70(I) 00:47:57 04:48 1
262 DE BONIS FABIO M ATL. WINNER FOLIGNO 1986 MM30(A) 00:47:58 04:48 32
263 POMPEI GIANCARLO M ATL. TAINO 1964 MM50(E) 00:48:03 04:48 38
264 MARZOLESI ROBERTO M ASSISI RUNNERS 1967 MM45(D) 00:48:06 04:49 52
265 GALLETTI CRISTIANO M RUNNERS MONTE ACUTO 1971 MM40(C) 00:48:15 04:50 64
266 POGGIONI PAOLO M CDP-T&RB GROUP-AREA SISTEMA 1964 MM50(E) 00:48:21 04:50 39
267 RASPA MICHELE M L'UNANUOVA 1970 MM40(C) 00:48:22 04:50 65
268 MENDICINO SALVATORE M POD. LINO SPAGNOLI PG 1959 MM55(F) 00:48:24 04:50 24
269 SPORTOLETTI CRISTIANO M ATL. AVIS PERUGIA 1974 MM40(C) 00:48:26 04:51 66
270 BOCCHINI MAURIZIO M ATL. IL COLLE PERUGIA 1969 MM45(D) 00:48:28 04:51 53
271 SANTIFICETUR FILIPPO M ASSISI RUNNERS 1983 MM30(A) 00:48:29 04:51 33
272 MANCINELLI RAFFAELE M CDP-T&RB GROUP-AREA SISTEMA 1983 MM30(A) 00:48:29 04:51 34
273 ANTONELLI ANDREA M ATLTETA LIBERO 1975 MM35(B) 00:48:30 04:51 34
274 CARDINALI MICHELE M L'UNANUOVA 1972 MM40(C) 00:48:35 04:52 67
275 CESARACCIO ALESSIO M ATL. UMBERTIDE 1990 MM30(A) 00:48:36 04:52 35
276 PANFILI FILIPPO M ATL. AVIS PERUGIA 1983 MM30(A) 00:48:38 04:52 36
277 AGOSTINELLI SIMONE M ATL. WINNER FOLIGNO 1969 MM45(D) 00:48:51 04:53 54
278 MILANESCHI DANIELE M ATL. SESTINI AREZZO 1972 MM40(C) 00:48:52 04:53 68
279 PAUSELLI GIANFRANCO M A.P. PONTE FELCINO PG 1966 MM45(D) 00:48:53 04:53 55
280 ITALIANO MAURIZIO M APERDIFIATO 1976 MM35(B) 00:48:54 04:53 35
281 PASCUCCI MORENO M UISPORT AVIS TODI 1966 MM45(D) 00:48:57 04:54 56
282 GIAMBENEDETTI MICHELE M POD. AVIS DERUTA 1973 MM40(C) 00:48:58 04:54 69
283 LONGETTI GIANNI M A.P. PONTE FELCINO PG 1948 MM65(H) 00:48:59 04:54 7
284 RICCI MIRKO M MARATHON CLUB C. DI CASTELLO 1971 MM40(C) 00:48:59 04:54 70
285 BARILETTI VINCENZO M CDP-T&RB GROUP-AREA SISTEMA 1960 MM50(E) 00:49:09 04:55 40
286 MANGIABENE STEFANO M POD. AVIS DERUTA 1984 MM30(A) 00:49:11 04:55 37
287 TOSTI MARCO M RUNNERS MONTE ACUTO 1974 MM40(C) 00:49:13 04:55 71
288 PALLERI LUCIANO M OLYMPIC RUNNERS LAMA 1952 MM60(G) 00:49:14 04:55 7
289 TIZZI ALBERTO M POD. AVIS DERUTA 1975 MM35(B) 00:49:16 04:56 36
290 CRUCIANI GIANPIERO M ATL. TREVI 1951 MM60(G) 00:49:19 04:56 8
291 ORLI MICHELE M L'UNANUOVA 1971 MM40(C) 00:49:20 04:56 72
292 DONATI ALBERTO M ATL. WINNER FOLIGNO 1956 MM55(F) 00:49:20 04:56 25
293 CORNELIO ALESSIO M ATL. SPOLETO 2010 1990 MM30(A) 00:49:21 04:56 38
294 MELLONI MICHELE M CDP-T&RB GROUP-AREA SISTEMA 1969 MM45(D) 00:49:22 04:56 57
295 RAMACCIATI NICOLA M ATL. CAPANNE PG 1969 MM45(D) 00:49:23 04:56 58
296 CENCI SIMONE M POD. AVIS DERUTA 1974 MM40(C) 00:49:25 04:57 73
297 SABATINI MARCO M ASSISI RUNNERS 1966 MM45(D) 00:49:28 04:57 59
298 AGLIANI LUIGI M ATL. SPOLETO 2010 1956 MM55(F) 00:49:31 04:57 26
299 SANTAGA' ANTONIO M ATL. CAPANNE PG 1960 MM50(E) 00:49:42 04:58 41
300 RAIO ROBERTO M ATL. WINNER FOLIGNO 1972 MM40(C) 00:49:44 04:58 74
301 GIOVANNONI FRANCO M ATL. UMBERTIDE 1944 MM70(I) 00:49:55 05:00 2
302 BELLACHIOMA ENZO M ATL. LIBERTAS ARCS 1955 MM55(F) 00:50:01 05:00 27
303 MAURO PAOLO M POD. CORCIANO 1968 MM45(D) 00:50:10 05:01 60
304 BAZZOFFIA MORENO M APERDIFIATO 1984 MM30(A) 00:50:14 05:01 39
305 PASQUETTI PASQUALE M ATL. GARDENIA PG 1952 MM60(G) 00:50:19 05:02 9
306 TOFI STEFANO M ATL. TREVI 1971 MM40(C) 00:50:21 05:02 75
307 COSTARELLI LEONARDO M POD. CORCIANO 1977 MM35(B) 00:50:21 05:02 37
308 FARNETANI LIVIO M ATL. SINALUNGA 1955 MM55(F) 00:50:25 05:03 28
309 PAGNOTTA LUCA M ATL. IL COLLE PERUGIA 1979 MM35(B) 00:50:26 05:03 38
310 GALVANIN GIANCARLO M ATLETA LIBERA 1962 MM50(E) 00:50:30 05:03 42
311 RAGGI STEFANO M ATL. SPOLETO 2010 1983 MM30(A) 00:50:34 05:03 40
312 RAGNI FRANCESCO M A.S.P.A. BASTIA U. PG 1956 MM55(F) 00:50:36 05:04 29
313 VAGNARELLI STEFANO M GUBBIO RUNNERS 1968 MM45(D) 00:50:43 05:04 61
314 DI PIETRO GIANMARCO M ATL. AVIS PERUGIA 1980 MM30(A) 00:50:47 05:05 41
315 CASCIANO PIO M ATL. SESTINI AREZZO 1958 MM55(F) 00:50:54 05:05 30
316 PETRINI MORENO M ATL. SPOLETO 2010 1955 MM55(F) 00:50:59 05:06 31
317 BUCO PAOLO M POD. AVIS DERUTA 1983 MM30(A) 00:51:02 05:06 42
318 MUTO PASQUALINO M POD. LINO SPAGNOLI PG 1959 MM55(F) 00:51:04 05:06 32
319 CERQUAGLIA MARIO M ATL. IL COLLE PERUGIA 1965 MM45(D) 00:51:13 05:07 62
320 MINISTRO GIANCARLO M AMATORI POD. TERNI 1943 MM70(I) 00:51:14 05:07 3
321 BROZZI FABIO M ACAR UNICREDIT BANCA PG 1960 MM50(E) 00:51:26 05:09 43
322 DE FLORIO ARTURO M GUBBIO RUNNERS 1968 MM45(D) 00:51:33 05:09 63
323 BRUSCHI STEFANO M OLYMPIC RUNNERS LAMA 1975 MM35(B) 00:51:38 05:10 39
324 CAVIGLIONI PATRIZIO M POD. AVIS DERUTA 1980 MM30(A) 00:51:39 05:10 43
325 LAMINCIA GIANLUCA M POD. AVIS DERUTA 1974 MM40(C) 00:51:40 05:10 76
326 MORELLI CLAUDIO M UISPORT AVIS TODI 1968 MM45(D) 00:51:45 05:11 64
327 TIRONI ENRICO M UISPORT AVIS TODI 1946 MM65(H) 00:51:48 05:11 8
328 CLERI ANGELO M A.S.P.A. BASTIA U. PG 1952 MM60(G) 00:51:50 05:11 10
329 MATTIOLI FABIO M ATL. SPOLETO 2010 1983 MM30(A) 00:51:51 05:11 44
330 CAPANNELLI ANTONELLO M A.S.P.A. BASTIA U. PG 1973 MM40(C) 00:51:54 05:11 77
331 MARCHETTI LUCA M ASSISI RUNNERS 1971 MM40(C) 00:51:58 05:12 78
332 STACCIOLI GIOVANNI M A.P. PONTE FELCINO PG 1955 MM55(F) 00:52:16 05:14 33
333 CHIOCCHI ANDREA M ATL. WINNER FOLIGNO 1976 MM35(B) 00:52:16 05:14 40
334 MASSETTI CLAUDIO M POD. LINO SPAGNOLI PG 1976 MM35(B) 00:52:17 05:14 41
335 BISTOCCHI DIEGO M A.P. PONTE FELCINO PG 1969 MM45(D) 00:52:18 05:14 65
336 HARLOW ROBERT M YMCA RUNNERS 1947 MM65(H) 00:52:18 05:14 9
337